Time;durP1;ratioP1;P1;durP2;ratioP2;P2;SDS_P1;SDS_P2;PMS_P1;PMS_P2;Temp;Humidity;BMP_temperature;BMP_pressure;BME280_temperature;BME280_humidity;BME280_pressure;Samples;Min_cycle;Max_cycle;Signal;HPM_P1;HPM_P2
2022/02/07 00:00:23;;;;;;;0.68;0.47;;;6.40;97.00;;;;;;9965443;28;20501;-69
2022/02/07 00:05:16;;;;;;;0.70;0.45;;;6.50;96.90;;;;;;9960980;28;20073;-68
2022/02/07 00:10:07;;;;;;;1.48;0.30;;;6.50;96.90;;;;;;9968696;28;20027;-69
2022/02/07 00:14:58;;;;;;;1.10;0.50;;;6.40;97.10;;;;;;9976800;28;20047;-68
2022/02/07 00:19:48;;;;;;;0.30;0.22;;;6.30;97.20;;;;;;9960644;28;20034;-68
2022/02/07 00:24:39;;;;;;;1.38;0.30;;;6.10;97.10;;;;;;9979468;28;20431;-68
2022/02/07 00:29:30;;;;;;;0.68;0.30;;;6.00;97.00;;;;;;9981065;28;20104;-67
2022/02/07 00:34:20;;;;;;;0.47;0.17;;;5.90;96.90;;;;;;9961827;28;20030;-68
2022/02/07 00:39:18;;;;;;;1.83;0.20;;;5.90;96.70;;;;;;9966205;28;20023;-69
2022/02/07 00:44:14;;;;;;;0.10;0.10;;;5.80;96.80;;;;;;9970683;28;20126;-69
2022/02/07 00:49:04;;;;;;;0.93;0.40;;;5.90;96.70;;;;;;9983201;28;20489;-69
2022/02/07 00:53:55;;;;;;;1.65;0.38;;;5.90;96.50;;;;;;9957443;28;20035;-69
2022/02/07 00:58:46;;;;;;;0.28;0.28;;;5.90;96.50;;;;;;9985780;28;20076;-68
2022/02/07 01:03:36;;;;;;;0.10;0.10;;;5.90;96.60;;;;;;9979033;28;20401;-68
2022/02/07 01:08:36;;;;;;;0.65;0.65;;;6.00;96.50;;;;;;9980692;28;20130;-67
2022/02/07 01:13:43;;;;;;;0.85;0.32;;;6.00;96.50;;;;;;9952196;28;20129;-67
2022/02/07 01:54:39;;;;;;;1.95;1.67;;;6.50;96.20;;;;;;9929553;28;20050;-69
2022/02/07 01:59:30;;;;;;;0.20;0.17;;;6.50;96.10;;;;;;9978173;28;20022;-69
2022/02/07 02:04:21;;;;;;;0.98;0.40;;;6.60;96.10;;;;;;9972985;28;20056;-69
2022/02/07 02:09:13;;;;;;;0.22;0.20;;;6.60;96.00;;;;;;9965935;28;20200;-70
2022/02/07 02:49:48;;;;;;;1.90;0.47;;;6.20;95.10;;;;;;9979622;28;20077;-68
2022/02/07 02:54:39;;;;;;;1.20;0.70;;;6.20;95.00;;;;;;9973776;28;20398;-69
2022/02/07 02:59:30;;;;;;;0.68;0.50;;;6.20;95.00;;;;;;9971798;28;20042;-69
2022/02/07 03:04:20;;;;;;;0.82;0.38;;;6.10;94.90;;;;;;9960385;28;20607;-69
2022/02/07 03:09:14;;;;;;;0.93;0.32;;;6.10;94.80;;;;;;9950831;28;20029;-70
2022/02/07 03:14:06;;;;;;;1.65;0.50;;;6.10;94.70;;;;;;9956785;28;20034;-69
2022/02/07 03:18:57;;;;;;;1.38;0.60;;;6.10;94.60;;;;;;9976828;28;20057;-69
2022/02/07 03:23:47;;;;;;;8.02;0.70;;;6.20;94.50;;;;;;9962812;28;20026;-69
2022/02/07 03:28:38;;;;;;;2.40;0.68;;;6.20;94.30;;;;;;9980171;28;20045;-69
2022/02/07 03:33:29;;;;;;;1.05;0.50;;;6.30;94.20;;;;;;9965281;28;20045;-69
2022/02/07 03:38:19;;;;;;;1.70;0.68;;;6.30;94.10;;;;;;9963569;28;20031;-69
2022/02/07 03:43:10;;;;;;;2.90;0.82;;;6.30;93.80;;;;;;9961871;28;20449;-69
2022/02/07 03:48:01;;;;;;;1.50;0.80;;;5.40;94.20;;;;;;9984268;28;20026;-70
2022/02/07 03:52:52;;;;;;;1.60;0.90;;;4.90;95.20;;;;;;9981155;28;20041;-69
2022/02/07 03:57:42;;;;;;;3.80;0.93;;;4.90;95.30;;;;;;9970680;28;20038;-70
2022/02/07 04:02:38;;;;;;;1.25;0.45;;;5.00;95.10;;;;;;9971946;28;20121;-70
2022/02/07 04:07:32;;;;;;;1.65;0.82;;;5.00;95.00;;;;;;9972341;28;20026;-68
2022/02/07 04:12:26;;;;;;;1.95;0.60;;;4.90;95.00;;;;;;9959129;28;20504;-68
2022/02/07 04:17:24;;;;;;;0.47;0.40;;;4.90;95.00;;;;;;9976676;28;20031;-69
2022/02/07 04:22:15;;;;;;;0.85;0.40;;;4.80;95.10;;;;;;9973134;28;20266;-70
2022/02/07 04:27:05;;;;;;;0.93;0.60;;;4.80;95.00;;;;;;9985607;28;20297;-69
2022/02/07 04:31:56;;;;;;;0.13;0.13;;;4.70;95.10;;;;;;9969910;28;20102;-69
2022/02/07 04:36:53;;;;;;;0.20;0.20;;;4.80;95.10;;;;;;9951284;28;20034;-69
2022/02/07 04:41:45;;;;;;;0.68;0.40;;;4.80;95.00;;;;;;9977701;28;20018;-70
2022/02/07 04:52:08;;;;;;;2.45;0.50;;;4.80;95.00;;;;;;9877055;28;20678;-70
2022/02/07 05:01:56;;;;;;;1.45;0.30;;;4.80;95.00;;;;;;9982278;28;20054;-69
2022/02/07 05:17:08;;;;;;;2.83;0.50;;;4.80;94.70;;;;;;9963723;28;20049;-69
2022/02/07 05:21:59;;;;;;;2.33;0.60;;;4.90;94.60;;;;;;9966556;28;20546;-71
2022/02/07 05:26:50;;;;;;;1.33;0.65;;;4.90;94.60;;;;;;9983908;28;20037;-69
2022/02/07 05:31:40;;;;;;;2.55;0.73;;;4.90;94.50;;;;;;9951571;28;20077;-70
2022/02/07 05:36:31;;;;;;;0.68;0.57;;;4.80;94.50;;;;;;9971498;28;20531;-70
2022/02/07 05:41:22;;;;;;;2.30;0.52;;;4.80;94.60;;;;;;9985613;28;20087;-70
2022/02/07 05:46:13;;;;;;;0.75;0.63;;;4.70;94.60;;;;;;9976420;28;20030;-69
2022/02/07 05:51:04;;;;;;;3.08;1.42;;;4.70;94.60;;;;;;9974050;28;20457;-70
2022/02/07 05:55:55;;;;;;;1.60;0.98;;;4.60;94.50;;;;;;9953642;28;20092;-69
2022/02/07 06:00:45;;;;;;;1.48;0.95;;;4.60;94.50;;;;;;9978524;28;20033;-70
2022/02/07 06:05:36;;;;;;;1.10;0.60;;;4.60;94.30;;;;;;9971933;28;20247;-71
2022/02/07 06:10:27;;;;;;;1.90;0.73;;;4.70;94.30;;;;;;9973608;28;20030;-70
2022/02/07 06:15:18;;;;;;;5.20;0.73;;;4.70;94.20;;;;;;9959203;28;20096;-69
2022/02/07 06:20:09;;;;;;;2.22;0.70;;;4.70;94.10;;;;;;9970143;28;20038;-70
2022/02/07 06:25:02;;;;;;;2.22;0.93;;;4.60;94.00;;;;;;9973381;28;20054;-69
2022/02/07 06:29:53;;;;;;;3.13;0.70;;;4.60;94.00;;;;;;9967859;28;20133;-69
2022/02/07 06:34:44;;;;;;;1.75;0.95;;;4.60;94.00;;;;;;9964926;28;20038;-70
2022/02/07 06:39:40;;;;;;;1.27;0.65;;;4.60;93.90;;;;;;9973035;28;20027;-69
2022/02/07 06:44:31;;;;;;;1.17;0.85;;;4.60;93.80;;;;;;9952524;28;20385;-69
2022/02/07 06:49:25;;;;;;;2.95;0.95;;;4.60;93.70;;;;;;9979862;28;20033;-69
2022/02/07 06:54:20;;;;;;;2.38;0.75;;;4.60;93.50;;;;;;9948960;28;20386;-68
2022/02/07 06:59:15;;;;;;;1.45;0.98;;;4.70;93.50;;;;;;9959151;28;20068;-70
2022/02/07 07:04:13;;;;;;;2.03;0.73;;;4.60;93.40;;;;;;9960389;28;20592;-71
2022/02/07 07:09:04;;;;;;;4.93;0.95;;;4.60;93.30;;;;;;9960544;28;20113;-69
2022/02/07 07:14:00;;;;;;;1.85;0.93;;;4.70;93.30;;;;;;9962469;28;20046;-70
2022/02/07 07:18:50;;;;;;;;;;;4.60;93.10;;;;;;9958833;28;20019;-69
2022/02/07 07:23:42;;;;;;;1.27;0.70;;;4.60;93.00;;;;;;9956053;28;19917;-69
2022/02/07 07:28:38;;;;;;;2.15;0.98;;;4.70;93.00;;;;;;9949953;28;20030;-71
2022/02/07 07:33:30;;;;;;;2.90;1.00;;;4.70;92.90;;;;;;9959507;28;20391;-70
2022/02/07 07:38:23;;;;;;;1.58;0.55;;;4.70;92.80;;;;;;9961841;28;20065;-76
2022/02/07 07:43:14;;;;;;;3.60;0.88;;;4.80;92.70;;;;;;9956126;28;20034;-71
2022/02/07 07:48:10;;;;;;;4.28;0.90;;;4.80;92.70;;;;;;9962905;28;20486;-70
2022/02/07 07:53:16;;;;;;;1.10;0.65;;;4.90;92.60;;;;;;9960134;28;20416;-68
2022/02/07 08:03:17;;;;;;;5.07;0.80;;;5.00;92.30;;;;;;9964513;28;20187;-68
2022/02/07 08:08:20;;;;;;;4.90;1.23;;;5.00;92.20;;;;;;9935269;28;20096;-64
2022/02/07 08:13:16;;;;;;;1.40;0.82;;;5.00;92.10;;;;;;9960653;28;20055;-66
2022/02/07 08:18:06;;;;;;;3.85;1.00;;;5.10;92.00;;;;;;9978314;28;20023;-72
2022/02/07 08:23:01;;;;;;;1.50;0.75;;;5.20;91.90;;;;;;9967289;28;20106;-71
2022/02/07 08:27:52;;;;;;;2.10;0.70;;;5.30;91.80;;;;;;9960719;28;20025;-69
2022/02/07 08:32:43;;;;;;;5.05;1.08;;;5.30;91.70;;;;;;9909346;28;20391;-70
2022/02/07 08:37:34;;;;;;;1.80;1.15;;;5.30;91.70;;;;;;9914234;28;20039;-68
2022/02/07 08:42:25;;;;;;;2.25;1.02;;;5.40;91.50;;;;;;9923023;28;20409;-66
2022/02/07 08:47:15;;;;;;;4.50;1.20;;;5.60;91.60;;;;;;9916507;28;20050;-69
2022/02/07 08:52:07;;;;;;;6.60;1.42;;;5.90;91.50;;;;;;9918613;28;20019;-70
2022/02/07 08:57:13;;;;;;;3.00;0.90;;;6.00;91.50;;;;;;9926452;28;20441;-67
2022/02/07 09:02:16;;;;;;;;;;;5.90;91.40;;;;;;9921215;28;20061;-68
2022/02/07 09:07:25;;;;;;;3.13;0.98;;;6.00;91.20;;;;;;9928201;28;19962;-70
2022/02/07 09:12:15;;;;;;;6.40;1.30;;;6.10;91.30;;;;;;9926093;28;20417;-71
2022/02/07 09:17:06;;;;;;;7.22;1.42;;;6.00;91.30;;;;;;9925392;28;20121;-67
2022/02/07 09:21:57;;;;;;;3.95;2.10;;;5.90;91.10;;;;;;9927609;28;20719;-69
2022/02/07 09:26:47;;;;;;;3.88;1.17;;;6.00;91.00;;;;;;9930495;28;20039;-67
2022/02/07 09:31:38;;;;;;;8.20;2.47;;;6.10;91.00;;;;;;9947445;28;20065;-69
2022/02/07 09:36:29;;;;;;;4.80;0.93;;;6.10;90.80;;;;;;9958916;28;20254;-67
2022/02/07 09:41:21;;;;;;;3.92;2.17;;;6.20;90.70;;;;;;9963886;28;20476;-68
2022/02/07 09:46:20;;;;;;;2.45;1.20;;;6.40;90.80;;;;;;9955540;28;20037;-67
2022/02/07 09:51:12;;;;;;;5.45;1.30;;;6.50;90.50;;;;;;9971115;28;20085;-67
2022/02/07 09:56:05;;;;;;;5.97;1.90;;;6.40;90.70;;;;;;9944177;28;20049;-66
2022/02/07 10:01:00;;;;;;;4.28;1.13;;;6.50;90.30;;;;;;9966052;28;20031;-66
2022/02/07 10:11:17;;;;;;;3.25;1.20;;;6.90;90.10;;;;;;9965638;28;20025;-68
2022/02/07 10:16:37;;;;;;;4.18;1.38;;;7.20;89.80;;;;;;9951667;28;20451;-68
2022/02/07 10:42:45;;;;;;;5.10;1.80;;;7.00;88.20;;;;;;9965877;28;20042;-71
2022/02/07 10:47:30;;;;;;;1.58;1.20;;;6.70;88.20;;;;;;9969608;28;20026;-67
2022/02/07 10:52:20;;;;;;;1.60;0.80;;;6.50;88.00;;;;;;9957687;28;20046;-70
2022/02/07 10:57:11;;;;;;;1.02;0.65;;;6.50;87.20;;;;;;9948167;28;20031;-69
2022/02/07 11:02:39;;;;;;;5.65;1.33;;;6.50;86.90;;;;;;9948617;28;20281;-69
2022/02/07 11:07:13;;;;;;;6.72;1.05;;;6.60;87.20;;;;;;9962343;28;20026;-72
2022/02/07 11:12:24;;;;;;;1.95;1.42;;;7.20;86.30;;;;;;9946285;28;20108;-65
2022/02/07 11:27:33;;;;;;;4.65;0.77;;;8.10;85.10;;;;;;9979759;28;20046;-68
2022/02/07 11:32:43;;;;;;;2.92;1.00;;;8.20;83.10;;;;;;9968221;28;20084;-70
2022/02/07 11:37:34;;;;;;;3.47;1.92;;;7.90;84.40;;;;;;9962050;28;20023;-72
2022/02/07 11:42:28;;;;;;;3.72;2.00;;;8.00;84.30;;;;;;9959106;28;20084;-64
2022/02/07 11:47:28;;;;;;;4.47;1.35;;;8.00;84.50;;;;;;9968723;28;20038;-63
2022/02/07 11:52:28;;;;;;;7.43;2.80;;;7.80;84.60;;;;;;9952660;28;20051;-65
2022/02/07 11:57:21;;;;;;;3.60;1.13;;;7.70;84.20;;;;;;9965117;28;20096;-63
2022/02/07 12:02:18;;;;;;;4.93;1.15;;;7.50;84.30;;;;;;9976816;28;20021;-64
2022/02/07 12:07:22;;;;;;;4.10;1.17;;;7.30;83.90;;;;;;9961066;28;20310;-65
2022/02/07 12:17:43;;;;;;;2.67;1.05;;;7.30;83.70;;;;;;9975655;28;20037;-65
2022/02/07 12:23:04;;;;;;;4.00;0.98;;;7.20;83.50;;;;;;9965661;28;20503;-65
2022/02/07 12:27:59;;;;;;;2.25;0.73;;;7.10;83.20;;;;;;9971394;28;20443;-64
2022/02/07 12:32:50;;;;;;;2.78;1.13;;;7.20;83.30;;;;;;9985787;28;20046;-64
2022/02/07 12:37:41;;;;;;;5.93;2.00;;;7.20;83.10;;;;;;9978191;28;20089;-65
2022/02/07 12:42:34;;;;;;;4.70;1.30;;;7.20;82.80;;;;;;9976849;28;20174;-67
2022/02/07 12:47:25;;;;;;;3.90;2.13;;;7.20;82.80;;;;;;9988201;28;20125;-65
2022/02/07 12:52:16;;;;;;;4.25;1.45;;;7.30;82.40;;;;;;9985320;28;20026;-64
2022/02/07 12:57:07;;;;;;;2.63;1.25;;;7.30;82.30;;;;;;9972759;28;20270;-65
2022/02/07 13:01:57;;;;;;;3.53;1.30;;;7.40;82.20;;;;;;9982763;28;20676;-67
2022/02/07 13:06:54;;;;;;;3.22;1.00;;;7.50;82.40;;;;;;9965800;28;20620;-66
2022/02/07 13:11:48;;;;;;;;;;;7.50;82.30;;;;;;9983906;28;20058;-66
2022/02/07 13:16:39;;;;;;;4.78;1.48;;;7.60;81.90;;;;;;9980517;28;20027;-67
2022/02/07 13:21:29;;;;;;;1.35;0.82;;;7.80;81.70;;;;;;9972266;28;20432;-65
2022/02/07 13:26:20;;;;;;;4.95;1.27;;;7.90;81.90;;;;;;9958490;28;20038;-65
2022/02/07 13:31:12;;;;;;;5.57;1.00;;;7.90;81.90;;;;;;9946466;28;20042;-66
2022/02/07 13:36:03;;;;;;;2.33;1.08;;;7.60;82.00;;;;;;9985206;28;20412;-67
2022/02/07 13:40:59;;;;;;;1.25;0.88;;;7.60;81.90;;;;;;9976838;28;20109;-71
2022/02/07 13:46:02;;;;;;;2.83;1.08;;;7.80;81.50;;;;;;9955569;28;20112;-68
2022/02/07 13:50:55;;;;;;;3.95;1.00;;;7.90;81.20;;;;;;9964223;28;20114;-67
2022/02/07 13:55:49;;;;;;;3.03;1.27;;;8.10;81.20;;;;;;9960016;28;20121;-70
2022/02/07 14:00:41;;;;;;;4.57;1.63;;;8.60;80.30;;;;;;9950908;28;20035;-64
2022/02/07 14:05:37;;;;;;;3.03;1.45;;;8.70;80.10;;;;;;9955068;28;20432;-66
2022/02/07 14:10:33;;;;;;;3.45;1.17;;;9.00;79.70;;;;;;9948333;28;20154;-64
2022/02/07 14:15:24;;;;;;;7.55;2.25;;;8.90;79.40;;;;;;9949404;28;20037;-67
2022/02/07 14:20:19;;;;;;;4.43;1.05;;;8.80;79.30;;;;;;9952149;28;20031;-69
2022/02/07 14:25:12;;;;;;;3.57;1.00;;;8.60;79.30;;;;;;9952655;28;20041;-67
2022/02/07 14:30:04;;;;;;;1.92;1.15;;;8.40;79.10;;;;;;9952484;28;20378;-68
2022/02/07 14:34:54;;;;;;;4.57;1.42;;;8.40;79.10;;;;;;9963807;28;20277;-67
2022/02/07 14:39:45;;;;;;;4.53;1.42;;;8.50;78.90;;;;;;9955488;28;20026;-67
2022/02/07 14:44:49;;;;;;;2.22;1.48;;;8.40;78.80;;;;;;9951239;28;20041;-64
2022/02/07 14:49:40;;;;;;;3.20;1.00;;;8.50;78.80;;;;;;9955271;28;20065;-66
2022/02/07 14:54:34;;;;;;;4.38;1.23;;;8.60;78.40;;;;;;9959764;28;20524;-68
2022/02/07 14:59:26;;;;;;;8.18;1.23;;;8.40;78.20;;;;;;9935430;28;20080;-68
2022/02/07 15:04:16;;;;;;;2.38;0.98;;;8.20;78.50;;;;;;9951577;28;20035;-67
2022/02/07 15:09:07;;;;;;;68.28;31.85;;;8.10;78.50;;;;;;9949780;28;20522;-65
2022/02/07 15:13:57;;;;;;;13.18;6.30;;;8.10;78.20;;;;;;9954115;28;20038;-68
2022/02/07 15:18:48;;;;;;;8.30;2.85;;;8.30;77.60;;;;;;9977779;28;20116;-67
2022/02/07 15:23:41;;;;;;;24.73;10.70;;;8.30;77.80;;;;;;9969791;28;20031;-66
2022/02/07 15:28:32;;;;;;;13.40;6.22;;;8.10;77.70;;;;;;9962879;28;20027;-67
2022/02/07 15:33:30;;;;;;;2.78;1.27;;;8.10;77.60;;;;;;9969776;28;20041;-65
2022/02/07 15:38:24;;;;;;;2.78;1.67;;;8.10;77.40;;;;;;9957006;28;20072;-67
2022/02/07 15:43:16;;;;;;;7.53;1.60;;;8.20;77.30;;;;;;9957552;28;20033;-67
2022/02/07 15:48:08;;;;;;;2.05;1.15;;;8.10;77.20;;;;;;9961485;28;20070;-66
2022/02/07 15:53:01;;;;;;;3.45;1.30;;;8.00;77.30;;;;;;9959889;28;20045;-67
2022/02/07 15:57:52;;;;;;;5.85;1.52;;;7.90;77.20;;;;;;9951459;28;20041;-70
2022/02/07 16:02:50;;;;;;;3.63;1.55;;;7.90;77.20;;;;;;9968791;28;20032;-69
2022/02/07 16:07:41;;;;;;;4.38;1.33;;;7.80;77.10;;;;;;9965622;28;20085;-68
2022/02/07 16:12:32;;;;;;;2.25;1.23;;;7.80;77.10;;;;;;9949450;28;20125;-69
2022/02/07 16:17:22;;;;;;;3.78;1.17;;;7.70;77.10;;;;;;9945503;28;20073;-69
2022/02/07 16:22:14;;;;;;;1.50;0.63;;;7.60;77.10;;;;;;9951844;28;20105;-68
2022/02/07 16:27:05;;;;;;;1.80;1.05;;;7.50;77.10;;;;;;9967848;28;20030;-70
2022/02/07 16:31:56;;;;;;;3.22;1.20;;;7.40;77.10;;;;;;9946608;28;20512;-68
2022/02/07 16:37:01;;;;;;;3.40;0.85;;;7.30;77.10;;;;;;9965528;28;20041;-74
2022/02/07 16:41:52;;;;;;;3.73;0.97;;;7.30;77.20;;;;;;9955707;28;20031;-70
2022/02/07 16:46:55;;;;;;;15.95;7.63;;;7.30;77.10;;;;;;9964998;28;20341;-74
2022/02/07 16:51:46;;;;;;;4.15;1.90;;;7.20;77.30;;;;;;9957607;28;20026;-72
2022/02/07 16:56:38;;;;;;;2.15;1.17;;;7.10;77.40;;;;;;9965033;28;20105;-70
2022/02/07 17:01:29;;;;;;;3.65;1.40;;;7.00;77.40;;;;;;9974780;28;20145;-65
2022/02/07 17:06:23;;;;;;;6.03;1.00;;;7.00;77.40;;;;;;9970213;28;20579;-66
2022/02/07 17:11:17;;;;;;;1.80;1.20;;;6.90;77.40;;;;;;9974000;28;20407;-67
2022/02/07 17:16:08;;;;;;;4.25;1.85;;;6.90;77.50;;;;;;9963027;28;20127;-68
2022/02/07 17:20:58;;;;;;;2.85;1.20;;;6.80;77.40;;;;;;9968902;28;20135;-67
2022/02/07 17:25:49;;;;;;;3.33;1.55;;;6.70;77.60;;;;;;9968893;28;20069;-66
2022/02/07 17:30:40;;;;;;;2.38;1.20;;;6.70;77.60;;;;;;9975277;28;20088;-66
2022/02/07 17:35:31;;;;;;;3.72;1.48;;;6.60;77.80;;;;;;9968628;28;20497;-65
2022/02/07 17:40:22;;;;;;;5.10;1.30;;;6.60;77.90;;;;;;9965721;28;20069;-68
2022/02/07 17:45:15;;;;;;;3.05;1.65;;;6.50;78.10;;;;;;9967109;28;20041;-65
2022/02/07 17:50:08;;;;;;;4.32;1.42;;;6.50;78.20;;;;;;9970276;28;20026;-65
2022/02/07 17:54:58;;;;;;;7.95;1.88;;;6.50;78.30;;;;;;9972984;28;20042;-65
2022/02/07 17:59:50;;;;;;;2.47;1.75;;;6.40;79.10;;;;;;9969410;28;20034;-67
2022/02/07 18:04:41;;;;;;;4.18;1.92;;;6.40;78.70;;;;;;9966755;28;20547;-66
2022/02/07 18:09:32;;;;;;;3.05;1.50;;;6.40;78.70;;;;;;9971482;28;20025;-66
2022/02/07 18:14:23;;;;;;;3.65;1.13;;;6.30;78.80;;;;;;9974551;28;20098;-65
2022/02/07 18:19:21;;;;;;;4.07;1.70;;;6.30;78.90;;;;;;9973835;28;20022;-66
2022/02/07 18:24:12;;;;;;;4.40;1.60;;;6.30;79.00;;;;;;9967977;28;20026;-67
2022/02/07 18:29:03;;;;;;;4.78;1.88;;;6.20;79.00;;;;;;9969051;28;20054;-68
2022/02/07 18:33:54;;;;;;;4.97;1.60;;;6.30;79.00;;;;;;9969290;28;20484;-65
2022/02/07 18:38:52;;;;;;;3.42;1.20;;;6.30;79.10;;;;;;9970416;28;20069;-70
2022/02/07 18:43:43;;;;;;;1.95;1.38;;;6.30;79.00;;;;;;9942119;28;20184;-69
2022/02/07 18:48:37;;;;;;;9.23;2.13;;;6.20;79.00;;;;;;9971509;28;20069;-69
2022/02/07 18:53:28;;;;;;;3.60;2.08;;;6.20;79.00;;;;;;9969831;28;20042;-68
2022/02/07 18:58:34;;;;;;;4.20;1.92;;;6.10;79.10;;;;;;9974876;28;20662;-70
2022/02/07 19:03:29;;;;;;;2.97;1.73;;;6.10;79.30;;;;;;9968045;28;20029;-69
2022/02/07 19:08:20;;;;;;;6.22;2.92;;;6.00;79.30;;;;;;9965181;28;20030;-69
2022/02/07 19:13:17;;;;;;;5.47;2.17;;;6.00;79.50;;;;;;9965585;28;20057;-71
2022/02/07 19:18:10;;;;;;;7.30;2.20;;;5.90;79.50;;;;;;9947432;28;20029;-65
2022/02/07 19:23:01;;;;;;;3.63;1.90;;;5.80;79.70;;;;;;9960654;28;20031;-65
2022/02/07 19:28:08;;;;;;;2.33;1.40;;;5.70;79.80;;;;;;9957244;28;20576;-69
2022/02/07 19:33:06;;;;;;;3.13;1.52;;;5.70;79.90;;;;;;9961150;28;20046;-65
2022/02/07 19:37:58;;;;;;;3.28;1.35;;;5.70;80.40;;;;;;9964965;28;20057;-71
2022/02/07 19:42:55;;;;;;;3.55;1.52;;;5.60;80.10;;;;;;9960533;28;20094;-67
2022/02/07 19:47:47;;;;;;;5.07;1.83;;;5.60;80.00;;;;;;9957015;28;20410;-70
2022/02/07 19:52:38;;;;;;;3.20;1.63;;;5.60;80.00;;;;;;9953767;28;20077;-71
2022/02/07 19:57:30;;;;;;;6.20;1.73;;;5.50;80.10;;;;;;9954167;28;20057;-68
2022/02/07 20:02:24;;;;;;;5.55;2.30;;;5.90;80.50;;;;;;9939235;28;20493;-68
2022/02/07 20:07:15;;;;;;;3.85;2.15;;;5.40;80.50;;;;;;9966373;28;20097;-67
2022/02/07 20:12:16;;;;;;;4.82;1.70;;;5.30;80.60;;;;;;9959188;28;20479;-65
2022/02/07 20:17:07;;;;;;;8.05;3.15;;;5.20;80.80;;;;;;9959910;28;20043;-67
2022/02/07 20:21:57;;;;;;;6.70;2.25;;;5.20;80.90;;;;;;9962461;28;20389;-62
2022/02/07 20:26:56;;;;;;;5.90;2.88;;;5.20;81.10;;;;;;9974684;28;20033;-66
2022/02/07 20:31:46;;;;;;;5.15;1.88;;;5.10;81.30;;;;;;9947728;28;20509;-61
2022/02/07 20:36:37;;;;;;;7.35;2.70;;;5.10;81.30;;;;;;9959634;28;20045;-62
2022/02/07 20:41:27;;;;;;;2.83;1.63;;;5.10;81.30;;;;;;9973444;28;20030;-61
2022/02/07 20:46:23;;;;;;;3.65;1.80;;;5.10;81.40;;;;;;9959821;28;20086;-64
2022/02/07 20:51:13;;;;;;;2.75;1.63;;;5.00;81.70;;;;;;9980621;28;20069;-62
2022/02/07 20:56:04;;;;;;;4.72;2.03;;;5.00;81.70;;;;;;9972729;28;20080;-63
2022/02/07 21:00:55;;;;;;;6.05;2.13;;;5.00;81.90;;;;;;9985989;28;20092;-61
2022/02/07 21:05:50;;;;;;;3.72;1.73;;;5.00;82.10;;;;;;9978401;28;20040;-62
2022/02/07 21:10:43;;;;;;;11.60;2.10;;;4.90;82.10;;;;;;9972792;28;20441;-63
2022/02/07 21:15:36;;;;;;;6.40;2.70;;;4.90;82.20;;;;;;9981038;28;20047;-61
2022/02/07 21:20:27;;;;;;;5.88;2.42;;;4.90;82.30;;;;;;9982273;28;20022;-61
2022/02/07 21:25:18;;;;;;;5.53;2.40;;;4.90;83.00;;;;;;9969398;28;20121;-58
2022/02/07 21:30:11;;;;;;;5.47;2.08;;;4.90;82.60;;;;;;9966927;28;20066;-60
2022/02/07 21:35:01;;;;;;;4.80;2.40;;;4.90;82.80;;;;;;9972681;28;20034;-61
2022/02/07 21:39:52;;;;;;;6.55;2.90;;;5.00;82.90;;;;;;9965079;28;20034;-60
2022/02/07 21:44:43;;;;;;;3.80;2.35;;;5.10;83.00;;;;;;9965612;28;20085;-59
2022/02/07 21:49:33;;;;;;;3.92;2.20;;;4.50;82.70;;;;;;9967072;28;20489;-58
2022/02/07 21:54:24;;;;;;;4.13;2.42;;;5.20;83.00;;;;;;9967906;28;20137;-60
2022/02/07 21:59:15;;;;;;;6.68;2.72;;;5.20;83.20;;;;;;9969256;28;20437;-62
2022/02/07 22:04:07;;;;;;;7.22;2.58;;;5.20;83.30;;;;;;9969115;28;20240;-61
2022/02/07 22:08:59;;;;;;;7.22;2.78;;;5.30;83.30;;;;;;9972493;28;20504;-60
2022/02/07 22:13:50;;;;;;;4.68;3.10;;;5.30;83.40;;;;;;9959268;28;20034;-60
2022/02/07 22:18:41;;;;;;;4.35;1.88;;;5.30;83.50;;;;;;9956573;28;20041;-60
2022/02/07 22:23:33;;;;;;;6.07;2.17;;;5.30;83.50;;;;;;9976440;28;20042;-60
2022/02/07 22:28:24;;;;;;;3.60;2.22;;;5.20;83.70;;;;;;9974625;28;20022;-61
2022/02/07 22:33:17;;;;;;;5.50;2.05;;;5.20;84.20;;;;;;9953024;28;20034;-60
2022/02/07 22:38:09;;;;;;;4.70;2.00;;;5.20;83.20;;;;;;9977266;28;20506;-58
2022/02/07 22:43:00;;;;;;;3.83;1.98;;;5.20;83.60;;;;;;9967679;28;20038;-61
2022/02/07 22:47:51;;;;;;;6.05;2.08;;;5.20;83.80;;;;;;9964038;28;20030;-63
2022/02/07 22:52:47;;;;;;;3.13;2.38;;;5.10;83.90;;;;;;9967468;28;20065;-62
2022/02/07 22:57:38;;;;;;;7.75;3.28;;;5.10;83.90;;;;;;9970086;28;20174;-61
2022/02/07 23:02:29;;;;;;;2.25;1.55;;;5.10;84.00;;;;;;9973329;28;20234;-64
2022/02/07 23:07:26;;;;;;;6.07;2.10;;;5.00;84.10;;;;;;9962835;28;20031;-60
2022/02/07 23:12:30;;;;;;;5.38;1.98;;;5.10;84.00;;;;;;9965330;28;20027;-61
2022/02/07 23:17:30;;;;;;;4.28;1.90;;;5.10;84.00;;;;;;9969743;28;20563;-61
2022/02/07 23:37:57;;;;;;;2.95;1.77;;;5.10;84.20;;;;;;9942374;28;20042;-60
2022/02/07 23:42:54;;;;;;;3.40;2.10;;;5.10;84.20;;;;;;9965224;28;20435;-60
2022/02/07 23:47:49;;;;;;;5.55;2.10;;;5.10;84.30;;;;;;9962014;28;20677;-61
2022/02/07 23:58:16;;;;;;;5.13;2.92;;;5.00;84.40;;;;;;9965925;28;20081;-60
